Atlas, Illinois
Current Conditions -  °F | °C
As of 8:15 PM on Wednesday 22 Oct 2014 (Local Time) from KPPQ Reporting Station
Clear Clear  
Wind Chill: 51°   Ceiling: Unl
Heat Index: 51°   Visibility: 10mi
Dew Point: 42°   Wind: 0mph
Humidity: 71%   Direction: NA
Pressure: 30.23"   Gusts: NA
Location:  39.5365°N, 91.0118°W
Report Text: KPPQ 230115Z AUTO 00000KT 10SM CLR 10/05 A3023 RMK AO2 T01040053
Loading
Personal Weather Stations






























Interactive Weather Map New forecast layout! Learn more

10-Day Weather Forecast

Advertisements
Track Severe Weather on mobile